sensor_id;sensor_type;location;lat;lon;timestamp;P1;durP1;ratioP1;P2;durP2;ratioP2
8938;SDS011;4504;48.810;9.172;2022-09-30T00:00:58;111.82;;;4.50;;
8938;SDS011;4504;48.810;9.172;2022-09-30T00:03:25;111.07;;;4.00;;
8938;SDS011;4504;48.810;9.172;2022-09-30T00:05:56;113.32;;;4.80;;
8938;SDS011;4504;48.810;9.172;2022-09-30T00:08:24;114.07;;;4.60;;
8938;SDS011;4504;48.810;9.172;2022-09-30T00:10:58;112.47;;;4.57;;
8938;SDS011;4504;48.810;9.172;2022-09-30T00:13:28;112.28;;;4.13;;
8938;SDS011;4504;48.810;9.172;2022-09-30T00:15:55;116.88;;;4.72;;
8938;SDS011;4504;48.810;9.172;2022-09-30T00:18:23;111.55;;;4.55;;
8938;SDS011;4504;48.810;9.172;2022-09-30T00:20:51;116.60;;;4.55;;
8938;SDS011;4504;48.810;9.172;2022-09-30T00:23:18;111.28;;;4.30;;
8938;SDS011;4504;48.810;9.172;2022-09-30T00:25:45;110.22;;;4.05;;
8938;SDS011;4504;48.810;9.172;2022-09-30T00:28:12;111.28;;;4.03;;
8938;SDS011;4504;48.810;9.172;2022-09-30T00:30:39;112.63;;;4.60;;
8938;SDS011;4504;48.810;9.172;2022-09-30T00:33:06;111.45;;;4.30;;
8938;SDS011;4504;48.810;9.172;2022-09-30T00:35:35;115.22;;;4.68;;
8938;SDS011;4504;48.810;9.172;2022-09-30T00:38:02;111.63;;;4.18;;
8938;SDS011;4504;48.810;9.172;2022-09-30T00:40:29;114.70;;;4.43;;
8938;SDS011;4504;48.810;9.172;2022-09-30T00:42:56;114.35;;;4.25;;
8938;SDS011;4504;48.810;9.172;2022-09-30T00:45:24;112.80;;;4.78;;
8938;SDS011;4504;48.810;9.172;2022-09-30T00:47:54;115.57;;;4.60;;
8938;SDS011;4504;48.810;9.172;2022-09-30T00:50:33;111.28;;;4.70;;
8938;SDS011;4504;48.810;9.172;2022-09-30T00:53:07;110.43;;;3.90;;
8938;SDS011;4504;48.810;9.172;2022-09-30T00:55:40;112.88;;;4.82;;
8938;SDS011;4504;48.810;9.172;2022-09-30T00:58:18;112.32;;;4.60;;
8938;SDS011;4504;48.810;9.172;2022-09-30T01:00:50;112.22;;;4.63;;
8938;SDS011;4504;48.810;9.172;2022-09-30T01:03:17;111.82;;;4.80;;
8938;SDS011;4504;48.810;9.172;2022-09-30T01:05:48;111.35;;;4.25;;
8938;SDS011;4504;48.810;9.172;2022-09-30T01:08:16;112.63;;;4.60;;
8938;SDS011;4504;48.810;9.172;2022-09-30T01:10:45;112.15;;;4.20;;
8938;SDS011;4504;48.810;9.172;2022-09-30T01:13:12;110.28;;;4.70;;
8938;SDS011;4504;48.810;9.172;2022-09-30T01:15:49;110.63;;;4.45;;
8938;SDS011;4504;48.810;9.172;2022-09-30T01:18:34;110.57;;;4.63;;
8938;SDS011;4504;48.810;9.172;2022-09-30T01:24:26;111.72;;;4.63;;
8938;SDS011;4504;48.810;9.172;2022-09-30T01:27:15;117.22;;;4.60;;
8938;SDS011;4504;48.810;9.172;2022-09-30T01:29:56;112.70;;;4.47;;
8938;SDS011;4504;48.810;9.172;2022-09-30T01:35:36;111.35;;;4.30;;
8938;SDS011;4504;48.810;9.172;2022-09-30T01:38:14;116.95;;;4.60;;
8938;SDS011;4504;48.810;9.172;2022-09-30T01:40:52;113.68;;;4.45;;
8938;SDS011;4504;48.810;9.172;2022-09-30T01:43:28;113.97;;;4.38;;
8938;SDS011;4504;48.810;9.172;2022-09-30T01:46:02;114.65;;;4.45;;
8938;SDS011;4504;48.810;9.172;2022-09-30T01:48:40;112.43;;;4.15;;
8938;SDS011;4504;48.810;9.172;2022-09-30T01:51:16;111.78;;;4.60;;
8938;SDS011;4504;48.810;9.172;2022-09-30T01:53:50;110.18;;;4.25;;
8938;SDS011;4504;48.810;9.172;2022-09-30T01:56:23;111.30;;;4.20;;
8938;SDS011;4504;48.810;9.172;2022-09-30T01:58:56;111.75;;;5.18;;
8938;SDS011;4504;48.810;9.172;2022-09-30T02:01:27;111.65;;;4.30;;
8938;SDS011;4504;48.810;9.172;2022-09-30T02:03:59;111.47;;;4.50;;
8938;SDS011;4504;48.810;9.172;2022-09-30T02:06:32;112.35;;;4.65;;
8938;SDS011;4504;48.810;9.172;2022-09-30T02:09:03;114.13;;;5.55;;
8938;SDS011;4504;48.810;9.172;2022-09-30T02:11:36;111.65;;;4.28;;
8938;SDS011;4504;48.810;9.172;2022-09-30T02:14:05;111.95;;;4.38;;
8938;SDS011;4504;48.810;9.172;2022-09-30T02:16:39;110.90;;;4.45;;
8938;SDS011;4504;48.810;9.172;2022-09-30T02:19:14;111.68;;;4.20;;
8938;SDS011;4504;48.810;9.172;2022-09-30T02:21:46;109.55;;;4.35;;
8938;SDS011;4504;48.810;9.172;2022-09-30T02:24:18;112.10;;;4.50;;
8938;SDS011;4504;48.810;9.172;2022-09-30T02:26:49;111.65;;;4.22;;
8938;SDS011;4504;48.810;9.172;2022-09-30T02:29:21;110.80;;;4.55;;
8938;SDS011;4504;48.810;9.172;2022-09-30T02:31:53;113.53;;;5.35;;
8938;SDS011;4504;48.810;9.172;2022-09-30T02:34:26;114.22;;;4.63;;
8938;SDS011;4504;48.810;9.172;2022-09-30T02:36:58;116.57;;;4.65;;
8938;SDS011;4504;48.810;9.172;2022-09-30T02:39:31;114.47;;;4.82;;
8938;SDS011;4504;48.810;9.172;2022-09-30T02:42:04;112.32;;;5.05;;
8938;SDS011;4504;48.810;9.172;2022-09-30T02:44:37;113.28;;;5.05;;
8938;SDS011;4504;48.810;9.172;2022-09-30T02:47:07;111.38;;;4.90;;
8938;SDS011;4504;48.810;9.172;2022-09-30T02:49:44;115.28;;;5.10;;
8938;SDS011;4504;48.810;9.172;2022-09-30T02:52:18;113.22;;;5.20;;
8938;SDS011;4504;48.810;9.172;2022-09-30T02:54:51;115.38;;;5.25;;
8938;SDS011;4504;48.810;9.172;2022-09-30T02:57:29;116.25;;;5.63;;
8938;SDS011;4504;48.810;9.172;2022-09-30T03:00:04;115.32;;;4.85;;
8938;SDS011;4504;48.810;9.172;2022-09-30T03:02:32;112.85;;;5.20;;
8938;SDS011;4504;48.810;9.172;2022-09-30T03:05:01;112.72;;;4.85;;
8938;SDS011;4504;48.810;9.172;2022-09-30T03:07:29;114.28;;;5.40;;
8938;SDS011;4504;48.810;9.172;2022-09-30T03:09:56;112.60;;;5.20;;
8938;SDS011;4504;48.810;9.172;2022-09-30T03:12:40;113.03;;;5.13;;
8938;SDS011;4504;48.810;9.172;2022-09-30T03:15:22;129.82;;;4.57;;
8938;SDS011;4504;48.810;9.172;2022-09-30T03:18:04;111.13;;;4.35;;
8938;SDS011;4504;48.810;9.172;2022-09-30T03:20:49;110.68;;;4.35;;
8938;SDS011;4504;48.810;9.172;2022-09-30T03:23:34;112.28;;;4.30;;
8938;SDS011;4504;48.810;9.172;2022-09-30T03:26:17;111.13;;;4.70;;
8938;SDS011;4504;48.810;9.172;2022-09-30T03:28:54;110.28;;;4.20;;
8938;SDS011;4504;48.810;9.172;2022-09-30T03:31:31;110.88;;;4.55;;
8938;SDS011;4504;48.810;9.172;2022-09-30T03:34:12;115.07;;;4.28;;
8938;SDS011;4504;48.810;9.172;2022-09-30T03:36:49;111.82;;;4.30;;
8938;SDS011;4504;48.810;9.172;2022-09-30T03:39:29;113.22;;;4.30;;
8938;SDS011;4504;48.810;9.172;2022-09-30T03:42:12;113.38;;;4.07;;
8938;SDS011;4504;48.810;9.172;2022-09-30T03:44:46;109.70;;;4.10;;
8938;SDS011;4504;48.810;9.172;2022-09-30T03:47:19;110.82;;;4.40;;
8938;SDS011;4504;48.810;9.172;2022-09-30T03:49:50;110.68;;;4.10;;
8938;SDS011;4504;48.810;9.172;2022-09-30T03:52:21;110.40;;;4.10;;
8938;SDS011;4504;48.810;9.172;2022-09-30T03:54:51;110.72;;;4.40;;
8938;SDS011;4504;48.810;9.172;2022-09-30T03:57:19;113.70;;;5.13;;
8938;SDS011;4504;48.810;9.172;2022-09-30T03:59:46;113.30;;;4.75;;
8938;SDS011;4504;48.810;9.172;2022-09-30T04:02:13;111.78;;;4.80;;
8938;SDS011;4504;48.810;9.172;2022-09-30T04:04:40;110.88;;;4.10;;
8938;SDS011;4504;48.810;9.172;2022-09-30T04:07:08;117.00;;;5.32;;
8938;SDS011;4504;48.810;9.172;2022-09-30T04:09:36;114.03;;;4.75;;
8938;SDS011;4504;48.810;9.172;2022-09-30T04:12:04;111.38;;;4.65;;
8938;SDS011;4504;48.810;9.172;2022-09-30T04:14:32;111.03;;;4.30;;
8938;SDS011;4504;48.810;9.172;2022-09-30T04:17:00;111.03;;;4.40;;
8938;SDS011;4504;48.810;9.172;2022-09-30T04:19:27;110.72;;;4.25;;
8938;SDS011;4504;48.810;9.172;2022-09-30T04:21:54;111.93;;;5.30;;
8938;SDS011;4504;48.810;9.172;2022-09-30T04:24:21;111.10;;;4.60;;
8938;SDS011;4504;48.810;9.172;2022-09-30T04:26:51;112.65;;;4.95;;
8938;SDS011;4504;48.810;9.172;2022-09-30T04:29:18;113.53;;;4.88;;
8938;SDS011;4504;48.810;9.172;2022-09-30T04:31:45;111.85;;;4.45;;
8938;SDS011;4504;48.810;9.172;2022-09-30T04:34:11;113.35;;;4.75;;
8938;SDS011;4504;48.810;9.172;2022-09-30T04:36:39;113.82;;;4.50;;
8938;SDS011;4504;48.810;9.172;2022-09-30T04:39:06;112.78;;;4.90;;
8938;SDS011;4504;48.810;9.172;2022-09-30T04:41:33;112.40;;;5.00;;
8938;SDS011;4504;48.810;9.172;2022-09-30T04:44:04;114.20;;;5.13;;
8938;SDS011;4504;48.810;9.172;2022-09-30T04:46:31;112.85;;;5.03;;
8938;SDS011;4504;48.810;9.172;2022-09-30T04:49:01;117.00;;;5.50;;
8938;SDS011;4504;48.810;9.172;2022-09-30T04:51:28;111.28;;;4.40;;
8938;SDS011;4504;48.810;9.172;2022-09-30T04:53:55;117.25;;;5.38;;
8938;SDS011;4504;48.810;9.172;2022-09-30T04:56:23;115.03;;;5.18;;
8938;SDS011;4504;48.810;9.172;2022-09-30T04:58:50;117.53;;;4.75;;
8938;SDS011;4504;48.810;9.172;2022-09-30T05:01:19;113.13;;;5.00;;
8938;SDS011;4504;48.810;9.172;2022-09-30T05:03:46;111.72;;;4.82;;
8938;SDS011;4504;48.810;9.172;2022-09-30T05:06:15;115.20;;;5.40;;
8938;SDS011;4504;48.810;9.172;2022-09-30T05:08:42;114.43;;;4.82;;
8938;SDS011;4504;48.810;9.172;2022-09-30T05:11:09;112.18;;;4.40;;
8938;SDS011;4504;48.810;9.172;2022-09-30T05:13:39;113.72;;;5.40;;
8938;SDS011;4504;48.810;9.172;2022-09-30T05:16:06;111.63;;;4.60;;
8938;SDS011;4504;48.810;9.172;2022-09-30T05:18:35;113.38;;;4.90;;
8938;SDS011;4504;48.810;9.172;2022-09-30T05:21:03;115.75;;;5.50;;
8938;SDS011;4504;48.810;9.172;2022-09-30T05:23:31;115.53;;;5.53;;
8938;SDS011;4504;48.810;9.172;2022-09-30T05:25:58;118.43;;;5.35;;
8938;SDS011;4504;48.810;9.172;2022-09-30T05:28:26;112.45;;;5.72;;
8938;SDS011;4504;48.810;9.172;2022-09-30T05:30:55;113.82;;;4.72;;
8938;SDS011;4504;48.810;9.172;2022-09-30T05:33:23;112.63;;;5.15;;
8938;SDS011;4504;48.810;9.172;2022-09-30T05:35:52;114.72;;;5.53;;
8938;SDS011;4504;48.810;9.172;2022-09-30T05:38:19;113.35;;;5.00;;
8938;SDS011;4504;48.810;9.172;2022-09-30T05:40:46;112.00;;;4.88;;
8938;SDS011;4504;48.810;9.172;2022-09-30T05:43:13;117.55;;;4.90;;
8938;SDS011;4504;48.810;9.172;2022-09-30T05:45:40;113.05;;;5.10;;
8938;SDS011;4504;48.810;9.172;2022-09-30T05:48:07;112.78;;;4.72;;
8938;SDS011;4504;48.810;9.172;2022-09-30T05:50:34;112.93;;;5.00;;
8938;SDS011;4504;48.810;9.172;2022-09-30T05:53:02;113.65;;;5.00;;
8938;SDS011;4504;48.810;9.172;2022-09-30T05:55:30;114.25;;;5.60;;
8938;SDS011;4504;48.810;9.172;2022-09-30T05:57:57;111.18;;;5.00;;
8938;SDS011;4504;48.810;9.172;2022-09-30T06:00:25;112.00;;;5.20;;
8938;SDS011;4504;48.810;9.172;2022-09-30T06:02:52;123.28;;;5.60;;
8938;SDS011;4504;48.810;9.172;2022-09-30T06:05:19;113.72;;;5.38;;
8938;SDS011;4504;48.810;9.172;2022-09-30T06:07:46;114.22;;;5.88;;
8938;SDS011;4504;48.810;9.172;2022-09-30T06:10:16;121.45;;;6.45;;
8938;SDS011;4504;48.810;9.172;2022-09-30T06:12:43;112.93;;;5.25;;
8938;SDS011;4504;48.810;9.172;2022-09-30T06:15:10;115.53;;;5.47;;
8938;SDS011;4504;48.810;9.172;2022-09-30T06:17:37;113.78;;;5.75;;
8938;SDS011;4504;48.810;9.172;2022-09-30T06:20:07;114.05;;;5.63;;
8938;SDS011;4504;48.810;9.172;2022-09-30T06:22:35;113.07;;;5.70;;
8938;SDS011;4504;48.810;9.172;2022-09-30T06:25:02;113.85;;;5.50;;
8938;SDS011;4504;48.810;9.172;2022-09-30T06:27:31;133.40;;;15.05;;
8938;SDS011;4504;48.810;9.172;2022-09-30T06:29:59;123.25;;;8.88;;
8938;SDS011;4504;48.810;9.172;2022-09-30T06:32:26;119.28;;;7.72;;
8938;SDS011;4504;48.810;9.172;2022-09-30T06:34:54;124.70;;;6.60;;
8938;SDS011;4504;48.810;9.172;2022-09-30T06:37:21;115.93;;;6.75;;
8938;SDS011;4504;48.810;9.172;2022-09-30T06:39:49;115.63;;;6.45;;
8938;SDS011;4504;48.810;9.172;2022-09-30T06:42:16;116.20;;;6.75;;
8938;SDS011;4504;48.810;9.172;2022-09-30T06:44:45;116.03;;;7.05;;
8938;SDS011;4504;48.810;9.172;2022-09-30T06:47:13;115.55;;;6.30;;
8938;SDS011;4504;48.810;9.172;2022-09-30T06:49:40;115.78;;;6.80;;
8938;SDS011;4504;48.810;9.172;2022-09-30T06:52:08;114.90;;;7.25;;
8938;SDS011;4504;48.810;9.172;2022-09-30T06:54:37;115.28;;;6.40;;
8938;SDS011;4504;48.810;9.172;2022-09-30T06:57:05;115.30;;;6.32;;
8938;SDS011;4504;48.810;9.172;2022-09-30T06:59:33;114.65;;;6.97;;
8938;SDS011;4504;48.810;9.172;2022-09-30T07:02:02;116.85;;;6.18;;
8938;SDS011;4504;48.810;9.172;2022-09-30T07:04:29;116.43;;;7.10;;
8938;SDS011;4504;48.810;9.172;2022-09-30T07:06:56;116.18;;;7.10;;
8938;SDS011;4504;48.810;9.172;2022-09-30T07:09:23;116.38;;;7.60;;
8938;SDS011;4504;48.810;9.172;2022-09-30T07:11:50;114.78;;;6.40;;
8938;SDS011;4504;48.810;9.172;2022-09-30T07:14:17;117.38;;;7.80;;
8938;SDS011;4504;48.810;9.172;2022-09-30T07:16:48;119.82;;;7.30;;
8938;SDS011;4504;48.810;9.172;2022-09-30T07:19:18;115.72;;;6.82;;
8938;SDS011;4504;48.810;9.172;2022-09-30T07:21:47;114.32;;;7.25;;
8938;SDS011;4504;48.810;9.172;2022-09-30T07:24:15;119.93;;;8.50;;
8938;SDS011;4504;48.810;9.172;2022-09-30T07:26:42;148.05;;;17.17;;
8938;SDS011;4504;48.810;9.172;2022-09-30T07:29:10;117.93;;;8.82;;
8938;SDS011;4504;48.810;9.172;2022-09-30T07:31:38;116.75;;;7.35;;
8938;SDS011;4504;48.810;9.172;2022-09-30T07:34:06;118.80;;;7.13;;
8938;SDS011;4504;48.810;9.172;2022-09-30T07:36:36;117.72;;;8.07;;
8938;SDS011;4504;48.810;9.172;2022-09-30T07:39:05;114.90;;;7.10;;
8938;SDS011;4504;48.810;9.172;2022-09-30T07:41:37;118.55;;;7.25;;
8938;SDS011;4504;48.810;9.172;2022-09-30T07:44:07;119.53;;;8.23;;
8938;SDS011;4504;48.810;9.172;2022-09-30T07:46:37;117.32;;;7.50;;
8938;SDS011;4504;48.810;9.172;2022-09-30T07:49:04;117.38;;;8.05;;
8938;SDS011;4504;48.810;9.172;2022-09-30T07:51:34;118.97;;;7.80;;
8938;SDS011;4504;48.810;9.172;2022-09-30T07:54:06;117.03;;;8.18;;
8938;SDS011;4504;48.810;9.172;2022-09-30T07:56:34;118.63;;;8.38;;
8938;SDS011;4504;48.810;9.172;2022-09-30T07:59:03;115.95;;;7.38;;
8938;SDS011;4504;48.810;9.172;2022-09-30T08:01:30;118.72;;;7.75;;
8938;SDS011;4504;48.810;9.172;2022-09-30T08:03:59;117.95;;;7.60;;
8938;SDS011;4504;48.810;9.172;2022-09-30T08:06:29;117.30;;;8.05;;
8938;SDS011;4504;48.810;9.172;2022-09-30T08:08:58;118.80;;;7.07;;
8938;SDS011;4504;48.810;9.172;2022-09-30T08:11:25;115.50;;;7.70;;
8938;SDS011;4504;48.810;9.172;2022-09-30T08:13:54;119.05;;;8.93;;
8938;SDS011;4504;48.810;9.172;2022-09-30T08:16:22;117.20;;;7.57;;
8938;SDS011;4504;48.810;9.172;2022-09-30T08:18:52;115.65;;;6.70;;
8938;SDS011;4504;48.810;9.172;2022-09-30T08:21:19;118.55;;;7.72;;
8938;SDS011;4504;48.810;9.172;2022-09-30T08:23:48;116.28;;;7.25;;
8938;SDS011;4504;48.810;9.172;2022-09-30T08:26:17;114.57;;;6.88;;
8938;SDS011;4504;48.810;9.172;2022-09-30T08:28:44;117.80;;;7.32;;
8938;SDS011;4504;48.810;9.172;2022-09-30T08:31:13;117.50;;;6.90;;
8938;SDS011;4504;48.810;9.172;2022-09-30T08:33:41;116.43;;;6.53;;
8938;SDS011;4504;48.810;9.172;2022-09-30T08:36:10;117.15;;;7.43;;
8938;SDS011;4504;48.810;9.172;2022-09-30T08:38:39;116.38;;;7.82;;
8938;SDS011;4504;48.810;9.172;2022-09-30T08:41:31;115.45;;;7.25;;
8938;SDS011;4504;48.810;9.172;2022-09-30T08:44:24;119.45;;;7.57;;
8938;SDS011;4504;48.810;9.172;2022-09-30T08:47:01;119.53;;;6.40;;
8938;SDS011;4504;48.810;9.172;2022-09-30T08:49:36;115.43;;;8.10;;
8938;SDS011;4504;48.810;9.172;2022-09-30T08:52:14;116.38;;;7.13;;
8938;SDS011;4504;48.810;9.172;2022-09-30T08:54:49;118.07;;;7.72;;
8938;SDS011;4504;48.810;9.172;2022-09-30T08:57:20;115.25;;;6.72;;
8938;SDS011;4504;48.810;9.172;2022-09-30T08:59:49;118.80;;;8.15;;
8938;SDS011;4504;48.810;9.172;2022-09-30T09:02:20;116.78;;;8.15;;
8938;SDS011;4504;48.810;9.172;2022-09-30T09:04:51;118.53;;;8.00;;
8938;SDS011;4504;48.810;9.172;2022-09-30T09:07:26;118.10;;;7.45;;
8938;SDS011;4504;48.810;9.172;2022-09-30T09:10:05;114.53;;;7.07;;
8938;SDS011;4504;48.810;9.172;2022-09-30T09:12:45;114.68;;;7.75;;
8938;SDS011;4504;48.810;9.172;2022-09-30T09:15:25;121.93;;;7.45;;
8938;SDS011;4504;48.810;9.172;2022-09-30T09:18:09;115.88;;;7.35;;
8938;SDS011;4504;48.810;9.172;2022-09-30T09:20:56;118.72;;;8.40;;
8938;SDS011;4504;48.810;9.172;2022-09-30T09:23:24;116.03;;;7.07;;
8938;SDS011;4504;48.810;9.172;2022-09-30T09:25:52;116.18;;;7.60;;
8938;SDS011;4504;48.810;9.172;2022-09-30T09:28:32;114.68;;;6.97;;
8938;SDS011;4504;48.810;9.172;2022-09-30T09:31:03;115.47;;;6.95;;
8938;SDS011;4504;48.810;9.172;2022-09-30T09:33:31;118.63;;;7.05;;
8938;SDS011;4504;48.810;9.172;2022-09-30T09:36:03;115.00;;;7.50;;
8938;SDS011;4504;48.810;9.172;2022-09-30T09:38:43;115.10;;;6.90;;
8938;SDS011;4504;48.810;9.172;2022-09-30T09:41:28;114.22;;;6.15;;
8938;SDS011;4504;48.810;9.172;2022-09-30T09:44:08;115.22;;;6.95;;
8938;SDS011;4504;48.810;9.172;2022-09-30T09:46:45;114.47;;;6.35;;
8938;SDS011;4504;48.810;9.172;2022-09-30T09:49:28;114.45;;;6.70;;
8938;SDS011;4504;48.810;9.172;2022-09-30T09:55:03;117.25;;;6.70;;
8938;SDS011;4504;48.810;9.172;2022-09-30T09:57:31;113.68;;;6.53;;
8938;SDS011;4504;48.810;9.172;2022-09-30T09:59:59;114.53;;;7.45;;
8938;SDS011;4504;48.810;9.172;2022-09-30T10:02:57;117.65;;;6.20;;
8938;SDS011;4504;48.810;9.172;2022-09-30T10:05:26;112.82;;;6.82;;
8938;SDS011;4504;48.810;9.172;2022-09-30T10:08:08;111.57;;;5.50;;
8938;SDS011;4504;48.810;9.172;2022-09-30T10:10:44;115.13;;;6.70;;
8938;SDS011;4504;48.810;9.172;2022-09-30T10:13:15;114.97;;;6.70;;
8938;SDS011;4504;48.810;9.172;2022-09-30T10:15:47;111.93;;;5.60;;
8938;SDS011;4504;48.810;9.172;2022-09-30T10:18:17;113.32;;;5.30;;
8938;SDS011;4504;48.810;9.172;2022-09-30T10:20:48;121.80;;;7.95;;
8938;SDS011;4504;48.810;9.172;2022-09-30T10:23:18;112.45;;;5.30;;
8938;SDS011;4504;48.810;9.172;2022-09-30T10:25:58;111.18;;;4.80;;
8938;SDS011;4504;48.810;9.172;2022-09-30T10:28:29;111.18;;;4.90;;
8938;SDS011;4504;48.810;9.172;2022-09-30T10:30:59;110.63;;;5.20;;
8938;SDS011;4504;48.810;9.172;2022-09-30T10:33:31;110.25;;;4.38;;
8938;SDS011;4504;48.810;9.172;2022-09-30T10:36:09;119.97;;;10.15;;
8938;SDS011;4504;48.810;9.172;2022-09-30T10:38:47;117.75;;;8.13;;
8938;SDS011;4504;48.810;9.172;2022-09-30T10:41:23;110.80;;;4.65;;
8938;SDS011;4504;48.810;9.172;2022-09-30T10:43:54;109.40;;;3.60;;
8938;SDS011;4504;48.810;9.172;2022-09-30T10:46:25;112.32;;;4.88;;
8938;SDS011;4504;48.810;9.172;2022-09-30T10:48:55;109.65;;;4.05;;
8938;SDS011;4504;48.810;9.172;2022-09-30T10:51:33;113.40;;;3.78;;
8938;SDS011;4504;48.810;9.172;2022-09-30T10:54:00;108.85;;;3.30;;
8938;SDS011;4504;48.810;9.172;2022-09-30T10:56:35;109.68;;;4.00;;
8938;SDS011;4504;48.810;9.172;2022-09-30T10:59:06;109.18;;;4.25;;
8938;SDS011;4504;48.810;9.172;2022-09-30T11:01:55;109.15;;;4.38;;
8938;SDS011;4504;48.810;9.172;2022-09-30T11:04:26;110.57;;;3.78;;
8938;SDS011;4504;48.810;9.172;2022-09-30T11:07:00;108.63;;;3.80;;
8938;SDS011;4504;48.810;9.172;2022-09-30T11:09:38;109.18;;;3.80;;
8938;SDS011;4504;48.810;9.172;2022-09-30T11:12:13;108.18;;;4.00;;
8938;SDS011;4504;48.810;9.172;2022-09-30T11:14:50;108.35;;;3.85;;
8938;SDS011;4504;48.810;9.172;2022-09-30T11:17:30;107.13;;;3.10;;
8938;SDS011;4504;48.810;9.172;2022-09-30T11:20:06;108.72;;;3.55;;
8938;SDS011;4504;48.810;9.172;2022-09-30T11:22:42;114.05;;;3.72;;
8938;SDS011;4504;48.810;9.172;2022-09-30T11:25:15;107.53;;;3.78;;
8938;SDS011;4504;48.810;9.172;2022-09-30T11:27:52;110.03;;;4.22;;
8938;SDS011;4504;48.810;9.172;2022-09-30T11:30:29;107.68;;;3.45;;
8938;SDS011;4504;48.810;9.172;2022-09-30T11:33:09;110.13;;;3.90;;
8938;SDS011;4504;48.810;9.172;2022-09-30T11:35:45;109.80;;;3.58;;
8938;SDS011;4504;48.810;9.172;2022-09-30T11:41:08;107.18;;;2.90;;
8938;SDS011;4504;48.810;9.172;2022-09-30T11:43:42;112.75;;;3.10;;
8938;SDS011;4504;48.810;9.172;2022-09-30T11:46:33;107.28;;;3.00;;
8938;SDS011;4504;48.810;9.172;2022-09-30T11:49:19;108.07;;;3.15;;
8938;SDS011;4504;48.810;9.172;2022-09-30T11:52:12;106.77;;;3.53;;
8938;SDS011;4504;48.810;9.172;2022-09-30T11:54:54;108.20;;;3.37;;
8938;SDS011;4504;48.810;9.172;2022-09-30T11:57:44;109.40;;;3.83;;
8938;SDS011;4504;48.810;9.172;2022-09-30T12:00:17;109.70;;;4.47;;
8938;SDS011;4504;48.810;9.172;2022-09-30T12:02:46;107.20;;;3.30;;
8938;SDS011;4504;48.810;9.172;2022-09-30T12:05:18;107.17;;;3.60;;
8938;SDS011;4504;48.810;9.172;2022-09-30T12:07:50;108.37;;;3.80;;
8938;SDS011;4504;48.810;9.172;2022-09-30T12:10:24;110.00;;;4.27;;
8938;SDS011;4504;48.810;9.172;2022-09-30T12:12:55;108.70;;;3.77;;
8938;SDS011;4504;48.810;9.172;2022-09-30T12:15:29;107.70;;;3.40;;
8938;SDS011;4504;48.810;9.172;2022-09-30T12:17:59;106.67;;;3.17;;
8938;SDS011;4504;48.810;9.172;2022-09-30T12:20:31;116.40;;;3.07;;
8938;SDS011;4504;48.810;9.172;2022-09-30T12:23:05;106.90;;;3.30;;
8938;SDS011;4504;48.810;9.172;2022-09-30T12:25:42;106.97;;;3.20;;
8938;SDS011;4504;48.810;9.172;2022-09-30T12:28:16;107.05;;;2.92;;
8938;SDS011;4504;48.810;9.172;2022-09-30T12:31:12;108.32;;;3.67;;
8938;SDS011;4504;48.810;9.172;2022-09-30T12:33:58;107.13;;;3.07;;
8938;SDS011;4504;48.810;9.172;2022-09-30T12:39:50;108.35;;;3.28;;
8938;SDS011;4504;48.810;9.172;2022-09-30T12:42:42;107.00;;;3.40;;
8938;SDS011;4504;48.810;9.172;2022-09-30T12:45:37;106.10;;;2.70;;
8938;SDS011;4504;48.810;9.172;2022-09-30T12:48:25;107.60;;;2.97;;
8938;SDS011;4504;48.810;9.172;2022-09-30T12:50:59;107.07;;;3.20;;
8938;SDS011;4504;48.810;9.172;2022-09-30T12:53:28;109.87;;;3.43;;
8938;SDS011;4504;48.810;9.172;2022-09-30T12:56:01;107.33;;;3.47;;
8938;SDS011;4504;48.810;9.172;2022-09-30T12:58:31;106.60;;;3.10;;
8938;SDS011;4504;48.810;9.172;2022-09-30T13:01:03;109.63;;;3.00;;
8938;SDS011;4504;48.810;9.172;2022-09-30T13:03:43;106.20;;;2.67;;
8938;SDS011;4504;48.810;9.172;2022-09-30T13:06:15;106.10;;;2.90;;
8938;SDS011;4504;48.810;9.172;2022-09-30T13:08:48;106.07;;;2.83;;
8938;SDS011;4504;48.810;9.172;2022-09-30T13:11:35;107.23;;;3.00;;
8938;SDS011;4504;48.810;9.172;2022-09-30T13:17:00;106.37;;;2.90;;
8938;SDS011;4504;48.810;9.172;2022-09-30T13:19:52;110.87;;;3.43;;
8938;SDS011;4504;48.810;9.172;2022-09-30T13:25:24;108.30;;;3.03;;
8938;SDS011;4504;48.810;9.172;2022-09-30T13:27:52;104.47;;;2.80;;
8938;SDS011;4504;48.810;9.172;2022-09-30T13:33:39;106.50;;;3.10;;
8938;SDS011;4504;48.810;9.172;2022-09-30T13:39:18;106.70;;;2.90;;
8938;SDS011;4504;48.810;9.172;2022-09-30T13:41:52;108.77;;;3.00;;
8938;SDS011;4504;48.810;9.172;2022-09-30T13:44:29;107.00;;;2.93;;
8938;SDS011;4504;48.810;9.172;2022-09-30T13:47:07;107.13;;;3.00;;
8938;SDS011;4504;48.810;9.172;2022-09-30T13:49:42;106.93;;;2.87;;
8938;SDS011;4504;48.810;9.172;2022-09-30T13:52:19;107.70;;;3.40;;
8938;SDS011;4504;48.810;9.172;2022-09-30T13:54:54;106.80;;;2.80;;
8938;SDS011;4504;48.810;9.172;2022-09-30T13:57:27;109.50;;;2.77;;
8938;SDS011;4504;48.810;9.172;2022-09-30T14:00:05;107.57;;;3.00;;
8938;SDS011;4504;48.810;9.172;2022-09-30T14:02:45;106.37;;;2.57;;
8938;SDS011;4504;48.810;9.172;2022-09-30T14:05:37;105.47;;;2.60;;
8938;SDS011;4504;48.810;9.172;2022-09-30T14:08:39;106.07;;;2.67;;
8938;SDS011;4504;48.810;9.172;2022-09-30T14:11:38;106.80;;;2.93;;
8938;SDS011;4504;48.810;9.172;2022-09-30T14:17:31;107.00;;;2.77;;
8938;SDS011;4504;48.810;9.172;2022-09-30T14:20:14;106.97;;;2.90;;
8938;SDS011;4504;48.810;9.172;2022-09-30T14:22:58;106.80;;;2.90;;
8938;SDS011;4504;48.810;9.172;2022-09-30T14:25:26;106.77;;;2.90;;
8938;SDS011;4504;48.810;9.172;2022-09-30T14:28:02;108.10;;;2.90;;
8938;SDS011;4504;48.810;9.172;2022-09-30T14:30:31;107.10;;;2.90;;
8938;SDS011;4504;48.810;9.172;2022-09-30T14:33:09;107.30;;;2.90;;
8938;SDS011;4504;48.810;9.172;2022-09-30T14:35:40;106.87;;;3.00;;
8938;SDS011;4504;48.810;9.172;2022-09-30T14:38:12;105.07;;;2.87;;
8938;SDS011;4504;48.810;9.172;2022-09-30T14:40:47;106.57;;;2.80;;
8938;SDS011;4504;48.810;9.172;2022-09-30T14:43:19;107.37;;;3.17;;
8938;SDS011;4504;48.810;9.172;2022-09-30T14:45:49;108.50;;;2.80;;
8938;SDS011;4504;48.810;9.172;2022-09-30T14:48:22;105.90;;;2.83;;
8938;SDS011;4504;48.810;9.172;2022-09-30T14:50:54;107.07;;;3.53;;
8938;SDS011;4504;48.810;9.172;2022-09-30T14:53:26;105.67;;;3.40;;
8938;SDS011;4504;48.810;9.172;2022-09-30T14:55:54;106.40;;;2.93;;
8938;SDS011;4504;48.810;9.172;2022-09-30T14:58:22;111.20;;;2.97;;
8938;SDS011;4504;48.810;9.172;2022-09-30T15:01:00;107.50;;;3.00;;
8938;SDS011;4504;48.810;9.172;2022-09-30T15:03:33;108.20;;;2.80;;
8938;SDS011;4504;48.810;9.172;2022-09-30T15:06:04;106.70;;;3.00;;
8938;SDS011;4504;48.810;9.172;2022-09-30T15:08:41;107.70;;;2.93;;
8938;SDS011;4504;48.810;9.172;2022-09-30T15:11:09;106.57;;;3.00;;
8938;SDS011;4504;48.810;9.172;2022-09-30T15:13:43;108.57;;;3.63;;
8938;SDS011;4504;48.810;9.172;2022-09-30T15:16:20;108.10;;;3.50;;
8938;SDS011;4504;48.810;9.172;2022-09-30T15:18:49;110.80;;;3.30;;
8938;SDS011;4504;48.810;9.172;2022-09-30T15:21:18;106.27;;;3.27;;
8938;SDS011;4504;48.810;9.172;2022-09-30T15:23:47;107.67;;;3.30;;
8938;SDS011;4504;48.810;9.172;2022-09-30T15:26:18;106.10;;;2.77;;
8938;SDS011;4504;48.810;9.172;2022-09-30T15:28:47;106.20;;;3.00;;
8938;SDS011;4504;48.810;9.172;2022-09-30T15:31:17;106.27;;;2.80;;
8938;SDS011;4504;48.810;9.172;2022-09-30T15:33:59;105.63;;;3.20;;
8938;SDS011;4504;48.810;9.172;2022-09-30T15:36:33;105.97;;;2.90;;
8938;SDS011;4504;48.810;9.172;2022-09-30T15:39:01;106.30;;;2.67;;
8938;SDS011;4504;48.810;9.172;2022-09-30T15:41:30;107.73;;;2.90;;
8938;SDS011;4504;48.810;9.172;2022-09-30T15:44:05;106.33;;;2.70;;
8938;SDS011;4504;48.810;9.172;2022-09-30T15:49:30;106.07;;;3.00;;
8938;SDS011;4504;48.810;9.172;2022-09-30T15:52:19;108.60;;;2.80;;
8938;SDS011;4504;48.810;9.172;2022-09-30T15:54:57;106.97;;;3.10;;